createdAt,value
2023-03-31T00:00:33.770Z,10.00
2023-03-31T00:03:10.662Z,10.00
2023-03-31T00:05:48.806Z,10.00
2023-03-31T00:08:24.777Z,10.00
2023-03-31T00:11:02.683Z,9.90
2023-03-31T00:13:40.143Z,9.90
2023-03-31T00:16:18.058Z,9.90
2023-03-31T00:18:53.972Z,9.90
2023-03-31T00:21:34.074Z,9.80
2023-03-31T00:24:09.698Z,9.80
2023-03-31T00:26:46.727Z,9.80
2023-03-31T00:29:25.251Z,9.80
2023-03-31T00:32:02.346Z,9.80
2023-03-31T00:34:38.645Z,9.70
2023-03-31T00:37:16.721Z,9.70
2023-03-31T00:39:53.000Z,9.60
2023-03-31T00:42:28.151Z,9.60
2023-03-31T00:45:30.596Z,9.50
2023-03-31T00:48:10.572Z,9.40
2023-03-31T00:50:47.697Z,9.40
2023-03-31T00:53:24.942Z,9.40
2023-03-31T00:56:01.314Z,9.30
2023-03-31T00:58:44.153Z,9.30
2023-03-31T01:01:25.046Z,9.30
2023-03-31T01:04:00.428Z,9.20
2023-03-31T01:06:35.090Z,9.20
2023-03-31T01:09:10.958Z,9.10
2023-03-31T01:11:46.765Z,9.10
2023-03-31T01:14:23.681Z,9.10
2023-03-31T01:17:03.161Z,9.00
2023-03-31T01:19:47.993Z,9.00
2023-03-31T01:22:59.710Z,8.90
2023-03-31T01:26:09.892Z,8.90
2023-03-31T01:28:45.389Z,8.70
2023-03-31T01:31:47.272Z,8.70
2023-03-31T01:34:44.578Z,8.60
2023-03-31T01:37:42.068Z,8.50
2023-03-31T01:40:41.933Z,8.50
2023-03-31T01:43:20.023Z,8.40
2023-03-31T01:45:58.756Z,8.40
2023-03-31T01:48:39.540Z,8.30
2023-03-31T01:51:17.028Z,8.30
2023-03-31T01:53:54.395Z,8.30
2023-03-31T01:56:27.790Z,8.20
2023-03-31T01:59:07.437Z,8.20
2023-03-31T02:01:45.763Z,8.20
2023-03-31T02:04:22.422Z,8.10
2023-03-31T02:06:59.726Z,8.10
2023-03-31T02:09:36.472Z,8.10
2023-03-31T02:12:13.035Z,8.10
2023-03-31T02:14:52.021Z,8.00
2023-03-31T02:17:30.738Z,8.00
2023-03-31T02:20:09.359Z,7.90
2023-03-31T02:22:46.218Z,7.90
2023-03-31T02:25:24.519Z,7.80
2023-03-31T02:28:03.245Z,7.80
2023-03-31T02:30:44.839Z,7.80
2023-03-31T02:33:21.201Z,7.70
2023-03-31T02:35:57.977Z,7.70
2023-03-31T02:38:34.262Z,7.70
2023-03-31T02:41:09.789Z,7.60
2023-03-31T02:43:49.226Z,7.60
2023-03-31T02:46:29.116Z,7.60
2023-03-31T02:49:05.002Z,7.50
2023-03-31T02:52:12.620Z,7.50
2023-03-31T02:55:05.916Z,7.50
2023-03-31T02:58:12.747Z,7.50
2023-03-31T03:00:58.362Z,7.50
2023-03-31T03:03:33.099Z,7.40
2023-03-31T03:06:16.926Z,7.40
2023-03-31T03:09:09.385Z,7.40
2023-03-31T03:11:50.285Z,7.40
2023-03-31T03:14:29.552Z,7.30
2023-03-31T03:17:05.619Z,7.30
2023-03-31T03:19:44.690Z,7.30
2023-03-31T03:22:21.769Z,7.30
2023-03-31T03:24:58.129Z,7.30
2023-03-31T03:27:33.590Z,7.20
2023-03-31T03:30:10.681Z,7.20
2023-03-31T03:32:47.535Z,7.20
2023-03-31T03:35:23.455Z,7.20
2023-03-31T03:38:03.443Z,7.20
2023-03-31T03:40:38.279Z,7.10
2023-03-31T03:43:13.264Z,7.10
2023-03-31T03:45:52.075Z,7.10
2023-03-31T03:48:27.545Z,7.10
2023-03-31T03:51:03.873Z,7.10
2023-03-31T03:53:42.319Z,7.00
2023-03-31T03:56:17.715Z,7.00
2023-03-31T03:58:53.161Z,7.00
2023-03-31T04:01:28.866Z,7.00
2023-03-31T04:04:05.054Z,7.00
2023-03-31T04:06:41.131Z,6.90
2023-03-31T04:09:19.530Z,6.90
2023-03-31T04:11:56.160Z,6.90
2023-03-31T04:14:34.148Z,6.80
2023-03-31T04:17:08.105Z,6.80
2023-03-31T04:19:44.024Z,6.80
2023-03-31T04:22:20.940Z,6.70
2023-03-31T04:24:58.993Z,6.70
2023-03-31T04:27:36.173Z,6.70
2023-03-31T04:30:23.362Z,6.70
2023-03-31T04:32:59.479Z,6.70
2023-03-31T04:35:50.991Z,6.60
2023-03-31T04:38:27.650Z,6.60
2023-03-31T04:41:07.006Z,6.60
2023-03-31T04:43:44.249Z,6.60
2023-03-31T04:46:19.488Z,6.60
2023-03-31T04:48:56.577Z,6.60
2023-03-31T04:51:31.398Z,6.70
2023-03-31T04:54:10.088Z,6.70
2023-03-31T04:56:48.756Z,6.80
2023-03-31T04:59:24.898Z,6.70
2023-03-31T05:02:03.110Z,6.70
2023-03-31T05:04:39.257Z,6.70
2023-03-31T05:07:14.572Z,6.80
2023-03-31T05:09:49.979Z,6.80
2023-03-31T05:12:27.895Z,6.80
2023-03-31T05:15:08.634Z,6.80
2023-03-31T05:17:44.009Z,6.80
2023-03-31T05:20:20.302Z,6.90
2023-03-31T05:22:55.668Z,6.90
2023-03-31T05:25:33.341Z,6.90
2023-03-31T05:28:12.403Z,7.00
2023-03-31T05:30:47.991Z,7.00
2023-03-31T05:33:23.558Z,7.10
2023-03-31T05:35:58.201Z,7.20
2023-03-31T05:38:34.994Z,7.30
2023-03-31T05:41:13.483Z,7.40
2023-03-31T05:43:47.409Z,7.60
2023-03-31T05:46:27.696Z,7.70
2023-03-31T05:49:03.096Z,7.80
2023-03-31T05:51:38.585Z,8.10
2023-03-31T05:54:14.193Z,8.40
2023-03-31T05:56:50.126Z,8.90
2023-03-31T05:59:26.852Z,9.20
2023-03-31T06:02:06.139Z,9.70
2023-03-31T06:04:44.049Z,10.10
2023-03-31T06:07:23.538Z,10.40
2023-03-31T06:09:59.242Z,10.50
2023-03-31T06:12:37.407Z,10.60
2023-03-31T06:15:14.729Z,10.70
2023-03-31T06:17:56.600Z,10.80
2023-03-31T06:20:32.191Z,10.80
2023-03-31T06:23:08.378Z,10.90
2023-03-31T06:25:50.770Z,10.90
2023-03-31T06:28:27.957Z,10.90
2023-03-31T06:31:07.784Z,10.90
2023-03-31T06:33:48.598Z,11.10
2023-03-31T06:36:23.099Z,11.40
2023-03-31T06:38:58.937Z,11.60
2023-03-31T06:41:37.196Z,11.80
2023-03-31T06:44:12.961Z,12.10
2023-03-31T06:46:48.093Z,12.60
2023-03-31T06:49:26.513Z,13.20
2023-03-31T06:52:02.383Z,13.90
2023-03-31T06:54:38.612Z,14.60
2023-03-31T06:57:18.465Z,14.90
2023-03-31T06:59:55.710Z,15.10
2023-03-31T07:02:32.905Z,15.10
2023-03-31T07:05:13.384Z,15.00
2023-03-31T07:07:51.136Z,15.00
2023-03-31T07:10:27.158Z,14.90
2023-03-31T07:13:05.163Z,14.90
2023-03-31T07:15:45.062Z,14.80
2023-03-31T07:18:20.396Z,14.70
2023-03-31T07:21:00.695Z,14.70
2023-03-31T07:23:36.107Z,14.70
2023-03-31T07:26:11.763Z,14.60
2023-03-31T07:28:48.524Z,14.40
2023-03-31T07:31:25.741Z,14.30
2023-03-31T07:34:01.446Z,14.20
2023-03-31T07:36:41.112Z,14.10
2023-03-31T07:39:17.950Z,14.10
2023-03-31T07:41:54.216Z,14.10
2023-03-31T07:44:30.441Z,14.00
2023-03-31T07:47:09.015Z,13.90
2023-03-31T07:49:44.174Z,13.90
2023-03-31T07:52:23.935Z,13.80
2023-03-31T07:55:00.688Z,13.80
2023-03-31T07:57:37.633Z,13.90
2023-03-31T08:00:16.957Z,13.90
2023-03-31T08:02:53.532Z,14.20
2023-03-31T08:05:30.648Z,14.40
2023-03-31T08:08:04.965Z,14.90
2023-03-31T08:10:44.642Z,15.50
2023-03-31T08:13:22.334Z,16.10
2023-03-31T08:15:56.272Z,16.50
2023-03-31T08:18:32.207Z,16.90
2023-03-31T08:21:09.755Z,17.20
2023-03-31T08:23:51.590Z,17.50
2023-03-31T08:26:32.452Z,17.70
2023-03-31T08:29:14.281Z,17.50
2023-03-31T08:31:49.521Z,17.40
2023-03-31T08:34:27.528Z,17.20
2023-03-31T08:37:04.538Z,17.10
2023-03-31T08:39:43.091Z,17.10
2023-03-31T08:42:17.187Z,17.00
2023-03-31T08:45:00.195Z,16.80
2023-03-31T08:47:35.481Z,16.70
2023-03-31T08:50:12.172Z,16.60
2023-03-31T08:52:49.000Z,16.60
2023-03-31T08:55:28.926Z,16.60
2023-03-31T08:58:05.357Z,16.70
2023-03-31T09:00:48.116Z,16.70
2023-03-31T09:03:28.541Z,16.70
2023-03-31T09:06:04.670Z,16.70
2023-03-31T09:08:42.852Z,16.70
2023-03-31T09:11:24.566Z,16.90
2023-03-31T09:14:10.957Z,17.00
2023-03-31T09:16:50.143Z,17.30
2023-03-31T09:19:33.478Z,17.50
2023-03-31T09:22:09.830Z,17.70
2023-03-31T09:24:52.561Z,17.80
2023-03-31T09:27:28.428Z,17.90
2023-03-31T09:30:05.265Z,17.80
2023-03-31T09:32:45.323Z,17.80
2023-03-31T09:35:22.331Z,17.70
2023-03-31T09:38:01.931Z,17.70
2023-03-31T09:40:36.129Z,17.60
2023-03-31T09:43:12.014Z,17.40
2023-03-31T09:45:58.012Z,17.30
2023-03-31T09:48:42.202Z,17.10
2023-03-31T09:51:20.646Z,16.90
2023-03-31T09:53:55.156Z,16.80
2023-03-31T09:56:38.124Z,16.70
2023-03-31T09:59:18.750Z,16.50
2023-03-31T10:01:56.743Z,16.40
2023-03-31T10:04:28.350Z,16.30
2023-03-31T10:07:09.402Z,16.20
2023-03-31T10:09:46.656Z,16.10
2023-03-31T10:12:24.759Z,16.10
2023-03-31T10:15:07.398Z,16.10
2023-03-31T10:17:54.769Z,16.00
2023-03-31T10:20:37.971Z,15.90
2023-03-31T10:23:22.307Z,15.80
2023-03-31T10:26:00.104Z,15.80
2023-03-31T10:28:34.559Z,15.80
2023-03-31T10:31:11.667Z,15.80
2023-03-31T10:33:50.271Z,15.80
2023-03-31T10:36:29.162Z,15.80
2023-03-31T10:39:02.991Z,15.70
2023-03-31T10:41:42.494Z,15.60
2023-03-31T10:44:34.150Z,15.60
2023-03-31T10:47:13.147Z,15.50
2023-03-31T10:49:48.550Z,15.40
2023-03-31T10:52:25.706Z,15.40
2023-03-31T10:55:04.567Z,15.40
2023-03-31T10:57:47.902Z,15.30
2023-03-31T11:00:26.612Z,15.40
2023-03-31T11:03:22.952Z,15.40
2023-03-31T11:05:59.339Z,15.50
2023-03-31T11:08:41.904Z,15.60
2023-03-31T11:11:26.950Z,15.60
2023-03-31T11:14:08.353Z,15.70
2023-03-31T11:16:49.456Z,15.70
2023-03-31T11:19:33.835Z,15.90
2023-03-31T11:22:12.946Z,16.20
2023-03-31T11:25:09.525Z,16.40
2023-03-31T11:28:00.450Z,16.60
2023-03-31T11:30:42.445Z,16.80
2023-03-31T11:33:16.386Z,16.80
2023-03-31T11:36:00.037Z,16.80
2023-03-31T11:38:48.172Z,16.80
2023-03-31T11:41:27.598Z,16.80
2023-03-31T11:44:04.482Z,16.80
2023-03-31T11:46:44.222Z,16.80
2023-03-31T11:49:22.097Z,16.80
2023-03-31T11:51:58.335Z,16.90
2023-03-31T11:54:34.965Z,16.90
2023-03-31T11:57:13.678Z,16.90
2023-03-31T11:59:49.584Z,16.90
2023-03-31T12:02:38.925Z,16.90
2023-03-31T12:05:18.737Z,16.90
2023-03-31T12:07:53.534Z,16.80
2023-03-31T12:10:35.863Z,16.80
2023-03-31T12:13:25.233Z,16.70
2023-03-31T12:18:47.251Z,16.60
2023-03-31T12:21:23.248Z,16.50
2023-03-31T12:23:59.268Z,16.50
2023-03-31T12:26:39.857Z,16.40
2023-03-31T12:29:23.410Z,16.30
2023-03-31T12:32:01.659Z,16.20
2023-03-31T12:34:47.863Z,16.20
2023-03-31T12:37:49.681Z,16.20
2023-03-31T12:40:32.849Z,16.10
2023-03-31T12:43:39.292Z,16.10
2023-03-31T12:46:10.079Z,16.10
2023-03-31T12:48:58.666Z,16.00
2023-03-31T12:51:55.805Z,16.00
2023-03-31T12:54:52.414Z,15.90
2023-03-31T12:57:29.947Z,15.90
2023-03-31T13:00:00.988Z,15.80
2023-03-31T13:02:36.343Z,15.80
2023-03-31T13:05:39.396Z,15.60
2023-03-31T13:08:33.206Z,15.60
2023-03-31T13:11:13.095Z,15.50
2023-03-31T13:14:00.129Z,15.40
2023-03-31T13:16:36.530Z,15.40
2023-03-31T13:19:14.027Z,15.40
2023-03-31T13:21:59.426Z,15.30
2023-03-31T13:24:41.777Z,15.30
2023-03-31T13:27:32.581Z,15.20
2023-03-31T13:30:33.193Z,15.10
2023-03-31T13:33:09.439Z,15.20
2023-03-31T13:35:48.067Z,15.00
2023-03-31T13:38:22.362Z,14.90
2023-03-31T13:41:07.466Z,14.90
2023-03-31T13:44:01.055Z,14.80
2023-03-31T13:46:54.849Z,14.80
2023-03-31T13:49:45.976Z,14.70
2023-03-31T13:52:26.312Z,14.60
2023-03-31T13:55:24.470Z,14.60
2023-03-31T13:58:32.854Z,14.60
2023-03-31T14:04:35.646Z,14.40
2023-03-31T14:07:17.160Z,14.40
2023-03-31T14:09:54.311Z,14.40
2023-03-31T14:12:37.651Z,14.40
2023-03-31T14:15:21.627Z,14.30
2023-03-31T14:17:58.981Z,14.20
2023-03-31T14:20:41.890Z,14.10
2023-03-31T14:23:32.576Z,14.10
2023-03-31T14:26:07.008Z,14.10
2023-03-31T14:29:16.526Z,14.10
2023-03-31T14:31:55.145Z,14.00
2023-03-31T14:34:42.155Z,14.00
2023-03-31T14:37:21.741Z,14.00
2023-03-31T14:40:00.746Z,14.00
2023-03-31T14:42:40.714Z,13.90
2023-03-31T14:45:21.029Z,13.90
2023-03-31T14:48:00.623Z,14.00
2023-03-31T14:50:37.974Z,13.90
2023-03-31T14:53:19.667Z,13.90
2023-03-31T14:55:59.819Z,13.90
2023-03-31T14:58:37.071Z,13.90
2023-03-31T15:01:12.898Z,13.80
2023-03-31T15:03:48.620Z,13.70
2023-03-31T15:06:27.625Z,13.80
2023-03-31T15:09:04.548Z,13.80
2023-03-31T15:11:45.059Z,13.80
2023-03-31T15:14:22.804Z,13.90
2023-03-31T15:16:58.910Z,13.90
2023-03-31T15:19:37.000Z,13.90
2023-03-31T15:22:16.667Z,13.90
2023-03-31T15:24:54.596Z,13.90
2023-03-31T15:27:38.111Z,13.90
2023-03-31T15:30:18.072Z,13.80
2023-03-31T15:32:58.814Z,13.70
2023-03-31T15:35:40.326Z,13.60
2023-03-31T15:38:16.648Z,13.60
2023-03-31T15:40:53.259Z,13.50
2023-03-31T15:43:35.253Z,13.40
2023-03-31T15:46:22.892Z,13.40
2023-03-31T15:48:59.203Z,13.40
2023-03-31T15:51:36.755Z,13.30
2023-03-31T15:54:29.802Z,13.30
2023-03-31T15:57:05.007Z,13.30
2023-03-31T15:59:57.115Z,13.20
2023-03-31T16:02:39.991Z,13.20
2023-03-31T16:05:32.392Z,13.20
2023-03-31T16:08:13.441Z,13.10
2023-03-31T16:10:50.728Z,13.00
2023-03-31T16:13:27.892Z,13.00
2023-03-31T16:16:08.914Z,13.00
2023-03-31T16:18:46.189Z,12.90
2023-03-31T16:21:24.278Z,12.90
2023-03-31T16:24:02.512Z,12.80
2023-03-31T16:26:40.254Z,12.80
2023-03-31T16:29:24.404Z,12.80
2023-03-31T16:32:14.301Z,12.70
2023-03-31T16:35:20.688Z,12.70
2023-03-31T16:37:58.472Z,12.70
2023-03-31T16:40:34.442Z,12.70
2023-03-31T16:43:16.818Z,12.70
2023-03-31T16:45:52.653Z,12.70
2023-03-31T16:48:34.042Z,12.60
2023-03-31T16:51:10.378Z,12.70
2023-03-31T16:53:45.186Z,12.70
2023-03-31T16:56:21.677Z,12.60
2023-03-31T16:58:57.692Z,12.60
2023-03-31T17:01:31.204Z,12.60
2023-03-31T17:04:11.090Z,12.60
2023-03-31T17:06:47.109Z,12.60
2023-03-31T17:09:22.600Z,12.60
2023-03-31T17:11:58.509Z,12.60
2023-03-31T17:14:33.338Z,12.50
2023-03-31T17:17:10.518Z,12.50
2023-03-31T17:19:54.487Z,12.50
2023-03-31T17:22:31.958Z,12.40
2023-03-31T17:25:09.168Z,12.30
2023-03-31T17:27:45.139Z,12.30
2023-03-31T17:30:20.942Z,12.30
2023-03-31T17:33:06.224Z,12.20
2023-03-31T17:35:45.272Z,12.20
2023-03-31T17:38:21.930Z,12.20
2023-03-31T17:40:58.241Z,12.20
2023-03-31T17:43:35.684Z,12.20
2023-03-31T17:46:12.981Z,12.20
2023-03-31T17:48:49.381Z,12.20
2023-03-31T17:51:26.574Z,12.20
2023-03-31T17:54:04.308Z,12.10
2023-03-31T17:56:43.036Z,12.10
2023-03-31T17:59:22.570Z,12.10
2023-03-31T18:01:58.593Z,12.00
2023-03-31T18:04:34.535Z,12.00
2023-03-31T18:07:10.897Z,12.00
2023-03-31T18:09:46.731Z,12.00
2023-03-31T18:12:28.432Z,12.00
2023-03-31T18:15:03.118Z,11.90
2023-03-31T18:17:38.438Z,11.90
2023-03-31T18:20:14.754Z,11.90
2023-03-31T18:22:49.965Z,11.90
2023-03-31T18:25:27.580Z,11.90
2023-03-31T18:28:09.879Z,11.80
2023-03-31T18:30:52.336Z,11.80
2023-03-31T18:33:29.137Z,11.80
2023-03-31T18:36:08.035Z,11.80
2023-03-31T18:38:49.060Z,11.80
2023-03-31T18:41:28.779Z,11.80
2023-03-31T18:44:03.866Z,11.80
2023-03-31T18:46:47.789Z,11.70
2023-03-31T18:49:25.384Z,11.70
2023-03-31T18:52:05.107Z,11.70
2023-03-31T18:54:42.117Z,11.70
2023-03-31T18:57:20.283Z,11.70
2023-03-31T18:59:56.796Z,11.60
2023-03-31T19:02:38.958Z,11.50
2023-03-31T19:05:15.617Z,11.50
2023-03-31T19:07:58.448Z,11.40
2023-03-31T19:10:39.237Z,11.40
2023-03-31T19:13:23.645Z,11.30
2023-03-31T19:16:01.523Z,11.30
2023-03-31T19:18:44.376Z,11.20
2023-03-31T19:21:21.879Z,11.20
2023-03-31T19:23:59.270Z,11.20
2023-03-31T19:26:37.919Z,11.10
2023-03-31T19:29:17.487Z,11.10
2023-03-31T19:31:55.196Z,11.10
2023-03-31T19:34:37.173Z,11.10
2023-03-31T19:37:14.200Z,11.00
2023-03-31T19:39:49.848Z,11.00
2023-03-31T19:42:27.476Z,10.90
2023-03-31T19:45:07.139Z,10.90
2023-03-31T19:47:47.565Z,10.90
2023-03-31T19:50:28.108Z,10.90
2023-03-31T19:53:08.972Z,10.80
2023-03-31T19:55:49.400Z,10.80
2023-03-31T19:58:30.697Z,10.80
2023-03-31T20:01:08.130Z,10.70
2023-03-31T20:03:53.032Z,10.70
2023-03-31T20:06:32.608Z,10.60
2023-03-31T20:09:09.939Z,10.60
2023-03-31T20:11:48.756Z,10.60
2023-03-31T20:14:24.828Z,10.60
2023-03-31T20:17:01.533Z,10.50
2023-03-31T20:19:37.329Z,10.40
2023-03-31T20:22:17.742Z,10.40
2023-03-31T20:24:54.327Z,10.30
2023-03-31T20:27:31.354Z,10.30
2023-03-31T20:30:11.379Z,10.40
2023-03-31T20:32:48.646Z,10.40
2023-03-31T20:35:25.009Z,10.30
2023-03-31T20:38:05.925Z,10.30
2023-03-31T20:40:47.556Z,10.30
2023-03-31T20:43:24.910Z,10.30
2023-03-31T20:46:05.206Z,10.30
2023-03-31T20:48:42.291Z,10.30
2023-03-31T20:51:19.916Z,10.30
2023-03-31T20:54:00.127Z,10.30
2023-03-31T20:56:37.857Z,10.20
2023-03-31T20:59:15.609Z,10.20
2023-03-31T21:01:55.836Z,10.20
2023-03-31T21:04:32.313Z,10.10
2023-03-31T21:07:10.291Z,10.00
2023-03-31T21:09:52.966Z,10.00
2023-03-31T21:12:28.523Z,9.90
2023-03-31T21:15:03.987Z,9.80
2023-03-31T21:17:42.465Z,9.80
2023-03-31T21:20:21.751Z,9.80
2023-03-31T21:23:05.040Z,9.80
2023-03-31T21:25:49.262Z,9.80
2023-03-31T21:28:28.623Z,9.80
2023-03-31T21:31:07.859Z,9.80
2023-03-31T21:33:48.480Z,9.80
2023-03-31T21:36:27.247Z,9.80
2023-03-31T21:39:04.214Z,9.80
2023-03-31T21:41:43.500Z,9.80
2023-03-31T21:44:21.098Z,9.80
2023-03-31T21:46:57.630Z,9.80
2023-03-31T21:49:35.135Z,9.80
2023-03-31T21:52:10.668Z,9.70
2023-03-31T21:54:50.512Z,9.70
2023-03-31T21:57:29.402Z,9.70
2023-03-31T22:00:05.964Z,9.70
2023-03-31T22:02:42.989Z,9.70
2023-03-31T22:05:18.393Z,9.70
2023-03-31T22:07:54.637Z,9.70
2023-03-31T22:10:29.793Z,9.70
2023-03-31T22:13:12.464Z,9.70
2023-03-31T22:15:50.259Z,9.70
2023-03-31T22:18:30.751Z,9.70
2023-03-31T22:21:08.013Z,9.70
2023-03-31T22:23:45.543Z,9.70
2023-03-31T22:26:22.198Z,9.70
2023-03-31T22:29:00.601Z,9.70
2023-03-31T22:31:42.076Z,9.70
2023-03-31T22:34:20.524Z,9.60
2023-03-31T22:36:56.834Z,9.60
2023-03-31T22:39:32.277Z,9.60
2023-03-31T22:42:07.578Z,9.60
2023-03-31T22:44:45.494Z,9.60
2023-03-31T22:47:21.189Z,9.60
2023-03-31T22:49:56.651Z,9.60
2023-03-31T22:52:33.950Z,9.60
2023-03-31T22:55:12.249Z,9.50
2023-03-31T22:57:48.156Z,9.60
2023-03-31T23:00:28.104Z,9.60
2023-03-31T23:03:04.355Z,9.50
2023-03-31T23:05:43.319Z,9.50
2023-03-31T23:08:18.863Z,9.50
2023-03-31T23:11:00.338Z,9.50
2023-03-31T23:13:34.426Z,9.40
2023-03-31T23:16:16.040Z,9.40
2023-03-31T23:18:53.032Z,9.40
2023-03-31T23:21:29.288Z,9.40
2023-03-31T23:24:05.085Z,9.40
2023-03-31T23:26:41.437Z,9.40
2023-03-31T23:29:20.912Z,9.40
2023-03-31T23:31:58.391Z,9.40
2023-03-31T23:34:33.747Z,9.40
2023-03-31T23:37:08.142Z,9.40
2023-03-31T23:39:44.420Z,9.30
2023-03-31T23:42:21.246Z,9.40
2023-03-31T23:44:57.241Z,9.30
2023-03-31T23:47:35.067Z,9.30
2023-03-31T23:50:13.174Z,9.30
2023-03-31T23:52:49.525Z,9.30
2023-03-31T23:55:26.158Z,9.30
2023-03-31T23:58:01.648Z,9.40
